• Join FlightAware (Why Join?)
  • Login
  • US Flag 
02:56AM EST


 

Airport Tracker/Info


-or-


 

Live Flight TrackerFlight Track Log ✈ SKW6492 ✈ 06-May-2013 ✈ KAUS - KDEN

Flight Track Log - Related Links

Times and Time Zones

All times are in EDT time to prevent confusion due to time zone crossing. See the SKW6492 flight status page for this flight to view local times or setup timezone preferences in your user account.

Time Position Orientation Groundspeed Altitude Reporting Facility
EDT Latitude Longitude Course Direction KTS MPH feet Rate Location/Type
04:27PM 30.4080 -97.6406 291° West  Level FlightAware Approximate
04:27PM 30.1456 -97.8069 283° West 269 310 8,700  Level Houston Center
04:28PM 30.4510 -97.7652 293° West  Level FlightAware Approximate
04:28PM 30.2011 -97.8764 313° West 287 330 11,400  Level Houston Center
04:29PM 30.4960 -97.8890 293° West  Level FlightAware Approximate
04:30PM 30.5382 -98.0142 291° West  Level FlightAware Approximate
04:30PM 30.3118 -97.9447 332° Northwest  Level Estimated
04:31PM 30.5800 -98.1396 291° West  Level FlightAware Approximate
04:32PM 30.6217 -98.2651 291° West  Level FlightAware Approximate
04:32PM 30.3847 -98.1525 332° Northwest 384 442 14,300  Level Houston Center
04:33PM 30.6585 -98.3924 283° West  Level FlightAware Approximate
04:33PM 30.4047 -98.2589 282° West 338 389 15,000  Level Houston Center
04:34PM 30.4183 -98.3828 277° West 328 377 15,000 900 Level Houston Center
04:35PM 30.4397 -98.4881 283° West 337 388 16,900 1,920 Climbing Houston Center
04:36PM 30.5081 -98.5497 322° Northwest 319 367 19,000 1,620 Climbing Houston Center
04:37PM 31.0262 -98.3899 332° Northwest  Level Estimated
04:37PM 30.5906 -98.6028 331° Northwest 331 381 20,300  Level Houston Center
04:38PM 30.6822 -98.6625 331° Northwest 361 415 22,200 1,440 Climbing Houston Center
04:39PM 30.7706 -98.7208 330° Northwest 361 415 23,300 1,200 Climbing Houston Center
04:40PM 30.8664 -98.7842 330° Northwest 383 441 24,800 1,320 Climbing Houston Center
04:41PM 30.9639 -98.8469 331° Northwest 392 451 26,100 1,200 Climbing Houston Center
04:42PM 31.0883 -98.8983 341° North 411 473 27,400 1,200 Climbing Houston Center
04:43PM 31.2114 -98.8808 North 437 503 28,600 1,080 Climbing Houston Center
04:46PM 31.4201 -99.0269 328° Northwest  Level FlightAware Approximate
04:46PM 31.5703 -99.0347 328° Northwest 414 476 32,400  Level Fort Worth Center
04:47PM 31.6778 -99.1050 331° Northwest 414 476 33,600 1,020 Climbing Fort Worth Center
04:48PM 31.7750 -99.1728 329° Northwest 409 471 34,500 840 Climbing Fort Worth Center
04:49PM 31.8742 -99.2433 329° Northwest 409 471 35,300 960 Climbing Fort Worth Center
04:51PM 31.9882 -99.3127 329° Northwest  Level Estimated
04:51PM 32.0556 -99.3661 329° Northwest 406 467 37,300  Level Houston Center
04:53PM 32.1712 -99.4367 331° Northwest  Level Estimated
04:54PM 32.3444 -99.5706 330° Northwest 405 466 38,000  Level Houston Center
04:55PM 32.4564 -99.6514 329° Northwest 404 465 38,000  Level Fort Worth Center
04:56PM 32.5575 -99.7206 330° Northwest 409 471 38,000  Level Fort Worth Center
04:57PM 32.6625 -99.7972 328° Northwest 420 483 38,000  Level Fort Worth Center
04:58PM 32.7653 -99.8717 329° Northwest 433 498 38,000  Level Fort Worth Center
05:00PM 32.8218 -99.9766 330° Northwest  Level FlightAware Approximate
05:00PM 32.8684 -99.9662 322° Northwest  Level FlightAware Approximate
05:01PM 33.0678 -100.0881 330° Northwest 435 501 38,000  Level Fort Worth Center
05:03PM 33.1785 -100.1699 328° Northwest  Level FlightAware Approximate
05:03PM 33.2711 -100.2358 328° Northwest 425 489 38,000  Level Fort Worth Center
05:04PM 33.3739 -100.3114 328° Northwest 425 489 38,000  Level Fort Worth Center
05:06PM 33.5789 -100.4603 329° Northwest 425 489 38,000  Level Fort Worth Center
05:07PM 33.5378 -100.4764 330° Northwest  Level FlightAware Approximate
05:07PM 33.6814 -100.5336 329° Northwest 425 489 38,000  Level Fort Worth Center
05:09PM 33.8547 -100.6600 329° Northwest 432 497 38,000  Level Albuquerque Center
05:11PM 33.9916 -100.7667 327° Northwest  Level FlightAware Approximate
05:11PM 34.0814 -100.8272 327° Northwest 435 501 38,000  Level Albuquerque Center
05:11PM 34.1053 -100.8447 329° Northwest 425 489 38,000  Level Fort Worth Center
05:12PM 34.2075 -100.9192 329° Northwest 425 489 38,000  Level Fort Worth Center
05:14PM 34.3919 -101.0567 328° Northwest 436 502 38,000  Level Albuquerque Center
05:15PM 34.4944 -101.1339 328° Northwest 435 501 38,000  Level Albuquerque Center
05:16PM 34.5981 -101.2117 328° Northwest 436 502 38,000  Level Albuquerque Center
05:17PM 34.7006 -101.2894 328° Northwest 436 502 38,000  Level Albuquerque Center
05:18PM 34.8242 -101.3844 328° Northwest 437 503 38,000  Level Albuquerque Center
05:19PM 34.9283 -101.4628 328° Northwest 439 505 38,000  Level Albuquerque Center
05:20PM 35.0383 -101.5456 328° Northwest 444 511 38,000  Level Albuquerque Center
05:21PM 35.1433 -101.6264 328° Northwest 444 511 38,000  Level Albuquerque Center
05:24PM 35.3703 -101.7583 335° Northwest 452 520 38,000 -300 Level Albuquerque Center
05:25PM 35.4878 -101.8156 338° Northwest 452 520 37,100 -540 Descending Albuquerque Center
05:27PM 35.6980 -101.9106 340° North  Level FlightAware Approximate
05:28PM 35.8494 -101.9828 340° North 457 526 36,000  Level Albuquerque Center
05:30PM 36.1131 -102.1047 340° North 460 529 36,000  Level Albuquerque Center
05:31PM 36.2336 -102.1628 339° North 463 533 36,000  Level Albuquerque Center
05:32PM 36.3542 -102.2197 339° North 464 534 36,000  Level Albuquerque Center
05:33PM 36.4744 -102.2758 339° North 463 533 36,000  Level Albuquerque Center
05:34PM 36.5953 -102.3328 339° North 464 534 36,000  Level Albuquerque Center
05:35PM 36.7158 -102.3917 339° North 465 535 36,000  Level Albuquerque Center
05:36PM 36.8603 -102.4594 339° North 463 533 36,000  Level Albuquerque Center
05:37PM 36.9875 -102.5217 339° North 466 536 36,000  Level Albuquerque Center
05:38PM 37.0953 -102.5742 339° North 464 534 36,000  Level Albuquerque Center
05:40PM 37.3264 -102.6861 339° North 467 537 36,000  Level Denver Center
05:41PM 37.4425 -102.7417 339° North 468 539 36,000  Level Denver Center
05:43PM 37.7033 -102.8367 344° North 473 544 36,000  Level Denver Center
05:45PM 37.9647 -102.9211 346° North 470 541 36,000  Level Denver Center
05:46PM 38.0819 -103.0025 331° Northwest 459 528 36,000  Level Denver Center
05:48PM 38.2836 -103.1800 325° Northwest 449 517 36,000 -540 Level Denver Center
05:50PM 38.4258 -103.3111 North  Level Estimated
05:50PM 38.5083 -103.3753 North 453 521 34,000  Level Denver Center
05:51PM 38.6139 -103.4692 325° Northwest 460 529 32,000 -1,980 Descending Denver Center
05:52PM 38.7108 -103.5558 325° Northwest 446 513 30,000 -1,980 Descending Denver Center
05:54PM 38.8410 -103.6799 311° West  Level Estimated
05:54PM 38.9122 -103.7344 311° West 417 480 26,000  Level Denver Center
05:56PM 39.0526 -103.8219 303° West  Level FlightAware Approximate
05:56PM 39.0958 -103.8992 303° West 391 450 22,300  Level Denver Center
05:58PM 39.1968 -104.0369 311° West  Level FlightAware Approximate
05:58PM 39.2328 -104.0836 311° West 346 398 19,100  Level Denver Center
05:59PM 39.2764 -104.1975 296° West 324 373 17,500 -1,500 Descending Denver Center
06:00PM 39.2994 -104.3017 286° West 285 328 16,000 -1,380 Descending Denver Center
06:01PM 39.3217 -104.3958 287° West 280 322 14,700 -1,320 Descending Denver Center
06:02PM 39.3653 -104.4900 301° West 283 326 13,300 -1,320 Descending Denver Center
06:03PM 39.4142 -104.5722 308° West 292 336 12,000 -1,020 Descending Denver Center
06:05PM 39.5500 -104.6639 333° Northwest 263 303 10,200 -780 Descending Denver Center
06:07PM 39.6217 -104.6631 North 259 298 9,600 -960 Descending Denver Center
06:08PM 39.6911 -104.6619 North 218 251 8,300 -1,260 Descending Denver Center
06:09PM 39.7497 -104.6608 North 210 242 7,000 -1,080 Descending Denver Center
06:10PM 39.7931 -104.6614 359° North 152 175 6,100 -840 Descending Denver Center
06:11PM 39.8339 -104.6606 North 148 170 5,400 -720 Descending Denver Center
06:13PM 39.8500 -104.6667 North  Level FlightAware Approximate